ADDS METAR Data INFO
IDs: Format: Raw Decoded Include TAF

Data at: 1604 UTC 12 Dec 2017

KMYL 121551Z AUTO 00000KT M1/4SM FZFG VV001 M16/M17 A3052 RMK AO2 SLP415 T11561167
KMYL 121540Z AUTO 00000KT 1/4SM FZFG OVC001 M16/M18 A3052 RMK AO2 T11611178
KMYL 121534Z AUTO 00000KT 1SM BR OVC001 M17/M19 A3052 RMK AO2 VIS 1/4V5 T11671189
KMYL 121512Z AUTO 00000KT 10SM BKN001 M15/M17 A3052 RMK AO2 T11501172
KMYL 121503Z AUTO 00000KT 9SM SCT001 M16/M18 A3052 RMK AO2 T11611183
KMYL 121451Z AUTO 00000KT 9SM BKN001 M16/M18 A3052 RMK AO2 SLP413 T11561178 56002
KMYL 121433Z AUTO 00000KT 4SM BR BKN002 M16/M18 A3052 RMK AO2 T11611178
KMYL 121431Z AUTO 00000KT 1 1/2SM BR BKN002 M16/M18 A3052 RMK AO2 T11611178
KMYL 121412Z AUTO 24003KT 3/4SM BR VV001 M16/M17 A3052 RMK AO2 VIS 1/4V5 T11611172
KMYL 121409Z AUTO 00000KT 1 3/4SM BR SCT001 M16/M17 A3051 RMK AO2 VIS 3/4V5 T11561172
KMYL 121400Z AUTO 00000KT 10SM SCT001 M16/M17 A3051 RMK AO2 T11561167
KMYL 121351Z AUTO 06003KT 10SM BKN001 M14/M16 A3052 RMK AO2 SLP406 T11391161
KMYL 121331Z AUTO 00000KT 4SM BR OVC001 M14/M16 A3053 RMK AO2 T11391161
KMYL 121325Z AUTO 00000KT 1 1/4SM BR BKN001 M15/M17 A3053 RMK AO2 T11501167
KMYL 121319Z AUTO 00000KT 2SM BR BKN001 M16/M17 A3053 RMK AO2 T11561172
KMYL 121310Z AUTO 00000KT 10SM SCT001 M16/M17 A3053 RMK AO2 T11561172
KMYL 121251Z AUTO 00000KT 10SM CLR M14/M17 A3052 RMK AO2 SLP403 T11441167
KMYL 121151Z AUTO 00000KT 10SM CLR M14/M17 A3052 RMK AO2 SLP403 T11441167 11094 21150 58002
KMYL 121137Z AUTO 00000KT 10SM SCT001 M14/M16 A3052 RMK AO2 T11441161
KMYL 121118Z AUTO 00000KT 10SM BKN001 M14/M16 A3052 RMK AO2 T11441161
KMYL 121109Z AUTO 00000KT 10SM SCT001 M14/M16 A3053 RMK AO2 T11391161
KMYL 121051Z AUTO 00000KT 10SM CLR M13/M16 A3052 RMK AO2 SLP398 T11331156
KMYL 121032Z AUTO 00000KT 8SM FEW001 M13/M16 A3053 RMK AO2 T11331156
KMYL 121026Z AUTO 00000KT 2 1/2SM BR SCT001 M14/M16 A3053 RMK AO2 T11391156
KMYL 121008Z AUTO 00000KT 3SM BR OVC001 M14/M16 A3053 RMK AO2 T11391156
KMYL 121006Z AUTO 00000KT 1 1/4SM BR OVC001 M13/M16 A3053 RMK AO2 T11331156
KMYL 120953Z AUTO 00000KT 3/4SM BR VV001 M13/M14 A3053 RMK AO2 T11281139
KMYL 120951Z AUTO 00000KT 2SM BR OVC001 M12/M13 A3053 RMK AO2 SLP399 T11221133
KMYL 120949Z AUTO 00000KT 4SM BR OVC001 M12/M13 A3053 RMK AO2
KMYL 120947Z AUTO 00000KT 1 1/2SM BR OVC001 M12/M13 A3053 RMK AO2
KMYL 120928Z AUTO 10003KT 3/4SM BR VV001 M12/M13 A3053 RMK AO2 T11171128
KMYL 120926Z AUTO 09003KT 1 1/4SM BR OVC001 M12/M13 A3053 RMK AO2 T11171133
KMYL 120911Z AUTO 00000KT 6SM BR BKN002 M13/M15 A3053 RMK AO2 T11331150
KMYL 120903Z AUTO 00000KT 10SM SCT002 M15/M16 A3053 RMK AO2 T11501161
KMYL 120851Z AUTO 00000KT 10SM CLR M13/M14 A3053 RMK AO2 SLP400 T11281144 54000
KMYL 120751Z AUTO 00000KT 10SM CLR M13/M14 A3053 RMK AO2 SLP404 T11281144
KMYL 120651Z AUTO 11003KT 10SM CLR M12/M13 A3053 RMK AO2 SLP407 T11171133 410111150
KMYL 120551Z AUTO 00000KT 10SM CLR M10/M12 A3053 RMK AO2 SLP407 T11001117 11039 21100 53006
KMYL 120451Z AUTO 00000KT 10SM CLR M09/M12 A3051 RMK AO2 SLP407 T10941117
KMYL 120351Z AUTO 00000KT 10SM CLR M09/M10 A3051 RMK AO2 SLP409 T10891100
KMYL 120251Z AUTO 00000KT 10SM CLR M08/M09 A3051 RMK AO2 SLP405 T10781094 51002
KMYL 120151Z AUTO 00000KT 10SM CLR M07/M09 A3051 RMK AO2 SLP404 T10671094
KMYL 120051Z AUTO 00000KT 10SM CLR M05/M08 A3050 RMK AO2 SLP401 T10501078
KMYL 112351Z AUTO 00000KT 10SM CLR M04/M10 A3050 RMK AO2 SLP392 T10391100 11011 21094 55001
KMYL 112251Z AUTO 14003KT 10SM CLR M02/M09 A3049 RMK AO2 SLP385 T10221094
KMYL 112151Z AUTO 17003KT 10SM CLR M02/M08 A3049 RMK AO2 SLP383 T10221078
KMYL 112051Z AUTO 00000KT 10SM CLR M03/M07 A3050 RMK AO2 SLP390 T10331072 57014
KMYL 111951Z AUTO 15003KT 10SM CLR M06/M07 A3052 RMK AO2 SLP398 T10561072
KMYL 111851Z AUTO 00000KT 10SM CLR M07/M08 A3053 RMK AO2 SLP406 T10721083
KMYL 111751Z AUTO 00000KT 10SM CLR M09/M10 A3055 RMK AO2 SLP414 T10891100 11089 21150 51004
KMYL 111710Z AUTO 00000KT 4SM BR CLR M12/M12 A3054 RMK AO2 T11171117
KMYL 111705Z AUTO 00000KT 1 1/2SM BR FEW001 M12/M12 A3054 RMK AO2 T11171117
KMYL 111651Z AUTO 00000KT 5SM BR FEW001 M12/M13 A3054 RMK AO2 SLP420 T11171128
KMYL 111649Z AUTO 00000KT 3SM BR SCT001 M12/M13 A3054 RMK AO2
KMYL 111645Z AUTO 00000KT 2SM BR BKN001 M13/M13 A3054 RMK AO2 T11281133
KMYL 111618Z AUTO 00000KT 9SM OVC001 M13/M14 A3054 RMK AO2 T11331139
KMYL 111611Z AUTO 00000KT 2SM BR OVC001 M13/M14 A3054 RMK AO2 T11331139
KMYL 111551Z AUTO 00000KT 1/4SM FZFG VV001 M14/M15 A3055 RMK AO2 SLP423 T11391150
KMYL 111513Z AUTO 00000KT 1/4SM FZFG VV001 M15/M16 A3054 RMK AO2 T11501161
KMYL 111507Z AUTO 00000KT 1SM BR VV001 M14/M16 A3054 RMK AO2 T11441156
KMYL 111451Z AUTO 00000KT 5SM BR OVC001 M13/M16 A3054 RMK AO2 SLP418 T11331156 51002
KMYL 111438Z AUTO 00000KT 1 1/4SM BR OVC001 M14/M16 A3054 RMK AO2 T11391156
KMYL 111428Z AUTO 00000KT 3/4SM BR VV001 M14/M16 A3053 RMK AO2 VIS 1/2V5 T11441161
KMYL 111426Z AUTO 00000KT 1 1/4SM BR OVC001 M14/M16 A3053 RMK AO2 VIS 1/2V5 T11441161
KMYL 111418Z AUTO 00000KT 3SM BR OVC001 M14/M16 A3053 RMK AO2 T11441161
KMYL 111408Z AUTO 00000KT 1 3/4SM BR BKN001 M14/M16 A3053 RMK AO2 T11441161
KMYL 111351Z AUTO 00000KT 10SM BKN001 M14/M16 A3054 RMK AO2 SLP417 T11441161
KMYL 111251Z AUTO 00000KT 10SM BKN002 M15/M17 A3053 RMK AO2 SLP414 T11501167
KMYL 111227Z AUTO 00000KT 10SM FEW001 M13/M15 A3053 RMK AO2 T11281150
KMYL 111151Z AUTO 00000KT 10SM CLR M13/M16 A3053 RMK AO2 SLP405 T11331156 11100 21144 55000
KMYL 111051Z AUTO 00000KT 10SM CLR M13/M14 A3053 RMK AO2 SLP405 T11281144
KMYL 110951Z AUTO 04003KT 10SM CLR M12/M14 A3053 RMK AO2 SLP403 T11221144
KMYL 110851Z AUTO 00000KT 10SM CLR M12/M14 A3053 RMK AO2 SLP408 T11221144 58002
KMYL 110751Z AUTO 00000KT 10SM CLR M11/M13 A3054 RMK AO2 SLP411 T11111133
KMYL 110651Z AUTO 00000KT 10SM CLR M11/M13 A3054 RMK AO2 SLP415 T11111133 410331161
KMYL 110551Z AUTO 00000KT 10SM CLR M10/M12 A3054 RMK AO2 SLP416 T11001122 11044 21111 51007
KMYL 110451Z AUTO 00000KT 10SM CLR M11/M13 A3053 RMK AO2 SLP419 T11061128